Metar Aviation Weather Data KPWM

12°F Temp
°F Dewpoint
% Humidity
Temperature
10 MPH
16 KM/H
9 KTS
270°
Due West

Wind Speed
Clear
Conditions
Pressure 1009.12 (hPa) - 29.8 (in)
Visibility 9.9 (mi) - 16 (km)

Current Conditions
KPWM
Metar :KPWM 240651Z 27009KT 10SM CLR M11/M18 A2980 RMK AO2 SLP091 T11111178
Sun 24th January 02:51 am

  Metar Aviation API Data Provided by https://www.checkwx.com/ PHP scripts by weather34.com ©2021